Time;durP1;ratioP1;P1;durP2;ratioP2;P2;SDS_P1;SDS_P2;PMS_P1;PMS_P2;Temp;Humidity;BMP_temperature;BMP_pressure;BME280_temperature;BME280_humidity;BME280_pressure;Samples;Min_cycle;Max_cycle;Signal;HPM_P1;HPM_P2
2023/05/11 00:00:13;;;;;;;67.43;37.15;;;;;;;10.73;100.00;101363.91;5085901;28;20111;-66
2023/05/11 00:02:38;;;;;;;71.53;38.20;;;;;;;10.69;100.00;101357.72;5081220;28;20495;-67
2023/05/11 00:05:05;;;;;;;70.70;38.28;;;;;;;10.72;100.00;101367.44;5077920;28;20071;-66
2023/05/11 00:07:30;;;;;;;68.25;38.75;;;;;;;10.70;100.00;101358.59;5085301;28;20165;-66
2023/05/11 00:09:55;;;;;;;65.50;38.53;;;;;;;10.66;100.00;101352.41;5083269;28;20474;-67
2023/05/11 00:12:21;;;;;;;67.13;36.95;;;;;;;10.67;100.00;101350.63;5083384;28;20119;-66
2023/05/11 00:14:46;;;;;;;67.80;36.70;;;;;;;10.71;100.00;101344.50;5084490;28;20085;-66
2023/05/11 00:17:11;;;;;;;73.15;36.55;;;;;;;10.70;100.00;101350.66;5082164;28;20529;-66
2023/05/11 00:19:37;;;;;;;69.60;36.50;;;;;;;10.69;100.00;101346.22;5085168;28;20039;-67
2023/05/11 00:22:02;;;;;;;70.38;37.42;;;;;;;10.65;100.00;101337.38;5082105;28;20130;-66
2023/05/11 00:24:28;;;;;;;75.30;37.67;;;;;;;10.62;100.00;101340.00;5084170;28;20441;-67
2023/05/11 00:26:53;;;;;;;72.43;38.03;;;;;;;10.61;100.00;101330.28;5083256;28;20046;-66
2023/05/11 00:29:18;;;;;;;73.43;37.65;;;;;;;10.62;100.00;101335.59;5077749;28;20033;-71
2023/05/11 00:31:47;;;;;;;74.40;38.55;;;;;;;10.61;100.00;101333.81;5075124;28;20031;-66
2023/05/11 00:34:16;;;;;;;72.75;37.88;;;;;;;10.64;100.00;101343.53;5084975;28;20031;-66
2023/05/11 00:36:41;;;;;;;77.28;39.22;;;;;;;10.63;100.00;101347.06;5081244;28;20149;-66
2023/05/11 00:39:11;;;;;;;76.25;39.45;;;;;;;10.61;100.00;101348.78;5081925;28;20131;-67
2023/05/11 00:41:37;;;;;;;70.25;38.30;;;;;;;10.57;100.00;101354.91;5083930;28;20040;-69
2023/05/11 00:44:03;;;;;;;74.40;38.47;;;;;;;10.58;100.00;101356.69;5082769;28;20156;-66
2023/05/11 00:46:28;;;;;;;86.68;40.95;;;;;;;10.61;100.00;101356.72;5082786;28;20063;-66
2023/05/11 00:48:54;;;;;;;75.05;39.60;;;;;;;10.58;100.00;101354.94;5083908;28;20032;-68
2023/05/11 00:51:22;;;;;;;80.60;41.03;;;;;;;10.57;100.00;101352.25;5081006;28;20033;-68
2023/05/11 00:53:49;;;;;;;82.57;41.80;;;;;;;10.57;100.00;101365.47;5084496;28;20024;-67
2023/05/11 00:56:15;;;;;;;79.50;40.75;;;;;;;10.57;100.00;101365.47;5081238;28;20028;-67
2023/05/11 00:58:40;;;;;;;79.35;40.30;;;;;;;10.53;100.00;101361.00;5084245;28;20038;-67
2023/05/11 01:01:06;;;;;;;84.45;40.78;;;;;;;10.54;100.00;101363.72;5073344;28;20025;-66
2023/05/11 01:03:33;;;;;;;85.35;42.55;;;;;;;10.51;100.00;101366.28;5081702;28;20145;-67
2023/05/11 01:06:10;;;;;;;90.10;41.92;;;;;;;10.54;100.00;101362.81;5083637;28;20035;-67
2023/05/11 01:08:49;;;;;;;91.55;43.08;;;;;;;10.56;100.00;101366.38;5080500;28;20111;-66
2023/05/11 01:11:18;;;;;;;91.65;43.30;;;;;;;10.55;100.00;101369.88;5076830;28;20111;-67
2023/05/11 01:13:50;;;;;;;94.68;43.83;;;;;;;10.55;100.00;101368.09;5084093;28;20032;-66
2023/05/11 01:16:19;;;;;;;;;;;;;;;10.54;100.00;101370.72;5077570;28;20041;-67
2023/05/11 01:19:17;;;;;;;88.38;43.10;;;;;;;10.55;100.00;101364.59;5076831;28;19919;-66
2023/05/11 01:21:45;;;;;;;85.55;43.28;;;;;;;10.51;100.00;101362.75;5083883;28;20048;-66
2023/05/11 01:24:31;;;;;;;88.60;43.65;;;;;;;10.50;100.00;101363.63;5081198;28;20064;-67
2023/05/11 01:27:26;;;;;;;96.05;43.22;;;;;;;10.50;100.00;101366.28;5078556;28;20036;-66
2023/05/11 01:30:29;;;;;;;86.75;43.17;;;;;;;10.49;100.00;101370.69;5077899;28;20036;-67
2023/05/11 01:32:58;;;;;;;91.40;43.72;;;;;;;10.49;100.00;101365.41;5078554;28;20036;-67
2023/05/11 01:35:25;;;;;;;94.13;45.53;;;;;;;10.46;100.00;101371.53;5083777;28;20055;-67
2023/05/11 01:37:56;;;;;;;90.00;42.97;;;;;;;10.45;100.00;101376.78;5080835;28;20041;-66
2023/05/11 01:40:28;;;;;;;93.18;44.67;;;;;;;10.47;100.00;101375.06;5083457;28;20076;-67
2023/05/11 01:43:02;;;;;;;94.03;43.88;;;;;;;10.45;100.00;101375.03;5081294;28;20082;-67
2023/05/11 01:45:31;;;;;;;96.18;44.13;;;;;;;10.42;100.00;101368.81;5083229;28;20036;-66
2023/05/11 01:48:01;;;;;;;96.40;44.45;;;;;;;10.43;100.00;101376.75;5081522;28;20067;-66
2023/05/11 01:50:28;;;;;;;98.47;45.38;;;;;;;10.42;100.00;101374.97;5082934;28;20068;-66
2023/05/11 01:52:53;;;;;;;95.97;45.33;;;;;;;10.43;100.00;101365.31;5081070;28;20446;-67
2023/05/11 01:55:22;;;;;;;99.43;46.22;;;;;;;10.41;100.00;101375.88;5083920;28;20028;-66
2023/05/11 01:57:51;;;;;;;105.63;47.30;;;;;;;10.41;100.00;101377.59;5076668;28;20480;-66
2023/05/11 02:00:17;;;;;;;96.93;47.60;;;;;;;10.40;100.00;101376.72;5077035;28;20075;-67
2023/05/11 02:02:47;;;;;;;102.40;45.60;;;;;;;10.42;100.00;101376.75;5082646;28;20601;-67
2023/05/11 02:05:20;;;;;;;101.00;46.22;;;;;;;10.41;100.00;101373.22;5084621;28;20065;-67
2023/05/11 02:07:49;;;;;;;96.50;45.40;;;;;;;10.38;100.00;101370.56;5087137;28;20039;-67
2023/05/11 02:10:16;;;;;;;99.95;46.13;;;;;;;10.40;100.00;101376.72;5084883;28;20025;-67
2023/05/11 02:12:43;;;;;;;97.90;45.50;;;;;;;10.39;100.00;101371.44;5087678;28;20031;-67
2023/05/11 02:15:10;;;;;;;106.43;47.83;;;;;;;10.38;100.00;101369.63;5080290;28;20033;-67
2023/05/11 02:17:38;;;;;;;110.03;46.92;;;;;;;10.40;100.00;101365.28;5087690;28;20043;-66
2023/05/11 02:20:06;;;;;;;110.40;47.33;;;;;;;10.39;100.00;101360.84;5084657;28;20039;-68
2023/05/11 02:22:33;;;;;;;106.85;46.67;;;;;;;10.41;100.00;101356.47;5086162;28;20037;-66
2023/05/11 02:24:58;;;;;;;110.57;46.72;;;;;;;10.42;100.00;101355.59;5085302;28;20032;-67
2023/05/11 02:27:23;;;;;;;112.05;47.22;;;;;;;10.40;100.00;101354.72;5085780;28;20040;-66
2023/05/11 02:29:49;;;;;;;109.85;46.30;;;;;;;10.41;100.00;101362.66;5086382;28;20028;-66
2023/05/11 02:32:18;;;;;;;118.68;46.40;;;;;;;10.40;100.00;101354.72;5084435;28;20028;-66
2023/05/11 02:34:53;;;;;;;112.38;48.08;;;;;;;10.37;100.00;101358.19;5087042;28;20020;-67
2023/05/11 02:37:23;;;;;;;108.75;47.15;;;;;;;10.40;100.00;101363.50;5084820;28;20024;-68
2023/05/11 02:39:55;;;;;;;126.90;49.80;;;;;;;10.39;100.00;101359.09;5085951;28;20036;-69
2023/05/11 02:42:22;;;;;;;120.63;50.60;;;;;;;10.38;100.00;101362.63;5085020;28;20036;-67
2023/05/11 02:44:54;;;;;;;121.03;48.47;;;;;;;10.37;100.00;101363.47;5086247;28;20024;-67
2023/05/11 02:47:21;;;;;;;127.53;50.87;;;;;;;10.40;100.00;101371.44;5086810;28;20032;-66
2023/05/11 02:49:52;;;;;;;136.30;51.33;;;;;;;10.42;100.00;101364.41;5085393;28;20658;-67
2023/05/11 02:52:20;;;;;;;145.35;52.90;;;;;;;10.43;100.00;101360.91;5084989;28;20016;-66
2023/05/11 02:54:49;;;;;;;144.60;51.92;;;;;;;10.46;100.00;101363.59;5066927;28;20036;-67
2023/05/11 02:57:14;;;;;;;130.93;52.83;;;;;;;10.48;100.00;101365.38;5085581;28;20020;-67
2023/05/11 02:59:40;;;;;;;137.25;52.65;;;;;;;10.48;100.00;101360.97;5084542;28;20349;-67
2023/05/11 03:02:06;;;;;;;122.88;53.13;;;;;;;10.45;100.00;101361.81;5085025;28;20060;-67
2023/05/11 03:04:33;;;;;;;132.80;53.25;;;;;;;10.43;100.00;101363.56;5086633;28;20490;-67
2023/05/11 03:06:59;;;;;;;135.00;53.47;;;;;;;10.42;100.00;101359.13;5083451;28;20064;-67
2023/05/11 03:09:24;;;;;;;140.95;54.13;;;;;;;10.43;100.00;101366.19;5086602;28;20020;-67
2023/05/11 03:11:50;;;;;;;147.13;54.88;;;;;;;10.44;100.00;101373.28;5083984;28;20063;-68
2023/05/11 03:14:16;;;;;;;146.57;56.05;;;;;;;10.45;100.00;101376.78;5084394;28;20048;-68
2023/05/11 03:16:42;;;;;;;151.98;56.05;;;;;;;10.42;100.00;101371.47;5084839;28;20028;-66
2023/05/11 03:19:09;;;;;;;144.30;55.60;;;;;;;10.39;100.00;101374.06;5084217;28;20029;-67
2023/05/11 03:21:37;;;;;;;140.40;55.47;;;;;;;10.35;100.00;101381.06;5085808;28;20032;-66
2023/05/11 03:24:06;;;;;;;145.45;55.45;;;;;;;10.31;100.00;101373.94;5083379;28;20107;-68
2023/05/11 03:26:33;;;;;;;143.73;54.88;;;;;;;10.25;100.00;101374.75;5086263;28;20069;-67
2023/05/11 03:29:00;;;;;;;146.75;55.55;;;;;;;10.21;100.00;101380.84;5083313;28;20489;-67
2023/05/11 03:31:25;;;;;;;167.65;58.42;;;;;;;10.16;100.00;101371.94;5078918;28;20056;-67
2023/05/11 03:33:51;;;;;;;150.35;56.05;;;;;;;10.10;100.00;101372.75;5085762;28;20055;-67
2023/05/11 03:36:16;;;;;;;155.85;57.95;;;;;;;10.06;100.00;101368.31;5083842;28;20020;-67
2023/05/11 03:38:45;;;;;;;155.02;56.17;;;;;;;10.03;100.00;101368.25;5084094;28;20025;-67
2023/05/11 03:41:15;;;;;;;157.75;54.90;;;;;;;9.99;100.00;101361.16;5084877;28;20031;-66
2023/05/11 03:43:44;;;;;;;160.32;57.30;;;;;;;10.00;100.00;101369.94;5084097;28;20426;-67
2023/05/11 03:46:12;;;;;;;167.50;57.10;;;;;;;9.93;100.00;101366.31;5080195;28;20126;-67
2023/05/11 03:48:39;;;;;;;165.65;56.88;;;;;;;9.88;100.00;101360.09;5084118;28;20082;-66
2023/05/11 03:51:05;;;;;;;170.75;60.30;;;;;;;9.89;100.00;101361.88;5083866;28;20028;-67
2023/05/11 03:53:31;;;;;;;174.05;59.25;;;;;;;9.86;100.00;101359.16;5085123;28;20047;-67
2023/05/11 03:55:56;;;;;;;158.65;57.22;;;;;;;9.87;100.00;101363.59;5082565;28;20051;-66
2023/05/11 03:58:22;;;;;;;171.90;58.85;;;;;;;9.83;100.00;101359.13;5086210;28;20036;-68
2023/05/11 04:00:47;;;;;;;179.25;59.50;;;;;;;9.85;100.00;101362.69;5064586;28;20035;-67
2023/05/11 04:03:13;;;;;;;181.50;61.20;;;;;;;9.87;100.00;101363.59;5077099;28;20475;-73
2023/05/11 04:05:39;;;;;;;176.55;59.42;;;;;;;9.86;100.00;101372.38;5079949;28;20047;-69
2023/05/11 04:08:05;;;;;;;179.07;60.10;;;;;;;9.86;100.00;101365.34;5077260;28;20033;-66
2023/05/11 04:10:30;;;;;;;171.45;59.55;;;;;;;9.86;100.00;101367.09;5082222;28;20056;-68
2023/05/11 04:12:56;;;;;;;184.93;60.67;;;;;;;9.85;100.00;101365.34;5078378;28;20127;-70
2023/05/11 04:15:21;;;;;;;167.70;58.22;;;;;;;9.89;100.00;101367.16;5084705;28;20028;-69
2023/05/11 04:17:47;;;;;;;173.60;60.15;;;;;;;9.91;100.00;101370.69;5083265;28;20440;-68
2023/05/11 04:20:12;;;;;;;174.02;61.28;;;;;;;9.90;100.00;101367.19;5083186;28;20110;-68
2023/05/11 04:22:37;;;;;;;178.88;61.08;;;;;;;9.94;100.00;101363.69;5084398;28;20024;-68
2023/05/11 04:25:03;;;;;;;175.60;64.22;;;;;;;9.93;100.00;101361.03;5082099;28;20123;-69
2023/05/11 04:27:32;;;;;;;186.18;61.88;;;;;;;9.94;100.00;101368.97;5085381;28;20077;-67
2023/05/11 04:29:58;;;;;;;180.05;59.50;;;;;;;9.92;100.00;101373.38;5077785;28;20529;-66
2023/05/11 04:32:23;;;;;;;180.60;59.85;;;;;;;9.93;100.00;101371.59;5084806;28;20027;-66
2023/05/11 04:34:48;;;;;;;176.10;61.53;;;;;;;9.96;100.00;101369.03;5082370;28;20513;-68
2023/05/11 04:37:14;;;;;;;177.18;59.85;;;;;;;9.97;100.00;101372.56;5083288;28;20039;-67
2023/05/11 04:39:39;;;;;;;177.32;61.75;;;;;;;9.99;100.00;101373.44;5083805;28;20052;-67
2023/05/11 04:42:04;;;;;;;159.27;57.05;;;;;;;9.98;100.00;101372.56;5081989;28;20024;-67
2023/05/11 04:44:30;;;;;;;203.00;64.35;;;;;;;9.93;100.00;101367.22;5085072;28;20118;-68
2023/05/11 04:46:56;;;;;;;197.88;64.85;;;;;;;9.98;100.00;101369.94;5081434;28;20471;-67
2023/05/11 04:49:21;;;;;;;205.20;64.22;;;;;;;10.02;100.00;101374.41;5084482;28;20023;-67
2023/05/11 04:51:47;;;;;;;192.73;64.00;;;;;;;10.07;100.00;101371.81;5082037;28;20497;-67
2023/05/11 04:54:12;;;;;;;198.02;62.90;;;;;;;10.16;100.00;101379.00;5083419;28;20028;-68
2023/05/11 04:56:39;;;;;;;198.38;63.47;;;;;;;10.22;100.00;101381.72;5083261;28;20471;-68
2023/05/11 04:59:05;;;;;;;198.52;63.15;;;;;;;10.34;100.00;101392.50;5082264;28;20033;-68
2023/05/11 05:01:31;;;;;;;181.95;63.05;;;;;;;10.43;100.00;101389.97;5083954;28;20028;-67
2023/05/11 05:03:56;;;;;;;191.45;65.10;;;;;;;10.45;100.00;101392.66;5081313;28;20044;-67
2023/05/11 05:06:21;;;;;;;204.95;65.22;;;;;;;10.50;100.00;101387.41;5084606;28;20028;-67
2023/05/11 05:08:47;;;;;;;197.90;63.67;;;;;;;10.50;100.00;101400.63;5081128;28;20036;-67
2023/05/11 05:11:12;;;;;;;191.65;65.97;;;;;;;10.49;100.00;101402.41;5078344;28;20035;-67
2023/05/11 05:13:38;;;;;;;185.75;65.72;;;;;;;10.53;100.00;101406.88;5066719;28;20548;-67
2023/05/11 05:16:03;;;;;;;188.60;65.32;;;;;;;10.56;100.00;101406.03;5079324;28;20032;-67
2023/05/11 05:18:29;;;;;;;196.32;65.93;;;;;;;10.54;100.00;101402.47;5080984;28;20032;-68
2023/05/11 05:20:54;;;;;;;184.48;63.13;;;;;;;10.59;100.00;101408.72;5077972;28;20029;-68
2023/05/11 05:23:19;;;;;;;168.77;62.47;;;;;;;10.56;100.00;101412.19;5082977;28;20071;-69
2023/05/11 05:25:45;;;;;;;177.73;64.20;;;;;;;10.57;100.00;101413.97;5082648;28;20040;-67
2023/05/11 05:28:10;;;;;;;175.98;62.67;;;;;;;10.56;100.00;101416.59;5081917;28;20025;-67
2023/05/11 05:30:36;;;;;;;175.85;63.70;;;;;;;10.66;100.00;101414.94;5083829;28;20024;-69
2023/05/11 05:33:01;;;;;;;169.27;62.85;;;;;;;10.72;100.00;101420.34;5080956;28;20020;-68
2023/05/11 05:35:27;;;;;;;150.43;60.90;;;;;;;10.67;100.00;101422.91;5083783;28;20031;-69
2023/05/11 05:37:52;;;;;;;142.48;59.40;;;;;;;10.58;100.00;101425.44;5075453;28;20115;-80
2023/05/11 05:40:17;;;;;;;145.02;57.08;;;;;;;10.68;100.00;101424.69;5079218;28;20043;-80
2023/05/11 05:42:43;;;;;;;149.95;60.13;;;;;;;10.66;100.00;101423.78;5057082;28;20077;-82
2023/05/11 05:45:09;;;;;;;152.73;60.60;;;;;;;10.70;100.00;101422.94;5077396;28;20449;-77
2023/05/11 05:47:34;;;;;;;151.52;59.97;;;;;;;10.71;100.00;101424.72;5055466;28;20036;-78
2023/05/11 05:50:00;;;;;;;152.35;62.60;;;;;;;10.75;100.00;101425.66;5060850;28;20028;-76
2023/05/11 05:52:25;;;;;;;142.32;61.50;;;;;;;10.70;100.00;101430.88;5078918;28;20037;-76
2023/05/11 05:54:50;;;;;;;148.80;60.10;;;;;;;10.78;100.00;101431.88;5076801;28;20024;-76
2023/05/11 05:57:16;;;;;;;150.80;60.58;;;;;;;10.71;100.00;101430.00;5076352;28;20420;-76
2023/05/11 05:59:41;;;;;;;145.15;62.22;;;;;;;10.71;100.00;101427.34;5072194;28;20025;-75
2023/05/11 06:02:07;;;;;;;138.82;59.33;;;;;;;10.72;100.00;101436.19;5072859;28;20024;-74
2023/05/11 06:04:32;;;;;;;144.60;59.97;;;;;;;10.79;100.00;101438.03;5072700;28;20485;-68
2023/05/11 06:06:58;;;;;;;155.27;62.15;;;;;;;10.92;100.00;101436.44;5075155;28;20028;-70
2023/05/11 06:09:24;;;;;;;157.25;62.17;;;;;;;11.09;100.00;101436.66;5071461;28;20116;-79
2023/05/11 06:11:49;;;;;;;150.43;62.90;;;;;;;11.09;100.00;101439.28;5075882;28;20099;-80
2023/05/11 06:14:15;;;;;;;152.32;60.72;;;;;;;11.02;100.00;101437.44;5069762;28;20075;-77
2023/05/11 06:16:40;;;;;;;155.25;63.47;;;;;;;11.07;100.00;101439.28;5069071;28;20062;-84
2023/05/11 06:19:07;;;;;;;161.43;63.95;;;;;;;11.10;100.00;101444.59;5075778;28;20368;-78
2023/05/11 06:21:32;;;;;;;151.27;62.70;;;;;;;11.22;100.00;101448.25;5072775;28;20028;-78
2023/05/11 06:23:57;;;;;;;144.40;60.13;;;;;;;11.18;100.00;101444.69;5074481;28;20464;-79
2023/05/11 06:26:24;;;;;;;142.43;60.58;;;;;;;11.24;100.00;101444.78;5075856;28;20036;-82
2023/05/11 06:28:50;;;;;;;146.10;60.25;;;;;;;11.23;100.00;101445.63;5076252;28;20029;-79
2023/05/11 06:31:15;;;;;;;138.15;61.05;;;;;;;11.21;100.00;101457.06;5075304;28;20146;-76
2023/05/11 06:33:41;;;;;;;124.60;58.08;;;;;;;11.17;100.00;101448.22;5080824;28;20119;-79
2023/05/11 06:36:06;;;;;;;132.15;59.78;;;;;;;11.13;100.00;101449.91;5077841;28;20043;-73
2023/05/11 06:38:32;;;;;;;133.85;59.60;;;;;;;11.15;100.00;101447.28;5076547;28;20497;-80
2023/05/11 06:40:57;;;;;;;130.35;57.63;;;;;;;11.15;100.00;101455.22;5076406;28;20082;-80
2023/05/11 06:43:22;;;;;;;125.80;57.55;;;;;;;11.05;100.00;101456.00;5073537;28;20035;-79
2023/05/11 06:45:49;;;;;;;124.55;56.95;;;;;;;11.08;100.00;101456.94;5072805;28;20029;-77
2023/05/11 06:48:14;;;;;;;123.88;57.63;;;;;;;11.15;100.00;101449.94;5076222;28;20028;-80
2023/05/11 06:50:39;;;;;;;119.45;57.20;;;;;;;11.18;100.00;101457.03;5078520;28;20024;-77
2023/05/11 06:53:05;;;;;;;118.82;56.28;;;;;;;11.15;100.00;101461.44;5080247;28;20507;-75
2023/05/11 06:55:31;;;;;;;117.32;56.30;;;;;;;11.17;100.00;101464.09;5079764;28;20166;-70
2023/05/11 06:57:56;;;;;;;114.40;56.90;;;;;;;11.21;100.00;101459.72;5080427;28;20437;-73
2023/05/11 07:00:21;;;;;;;110.05;54.88;;;;;;;11.26;100.00;101464.19;5078817;28;20032;-68
2023/05/11 07:02:47;;;;;;;111.57;56.08;;;;;;;11.29;100.00;101460.69;5077657;28;20029;-71
2023/05/11 07:05:12;;;;;;;98.93;51.75;;;;;;;11.22;100.00;101465.00;5079144;28;20040;-72
2023/05/11 07:07:37;;;;;;;96.40;52.50;;;;;;;11.19;100.00;101467.63;5077614;28;20037;-68
2023/05/11 07:10:06;;;;;;;95.38;51.15;;;;;;;11.13;100.00;101472.88;5079970;28;20060;-70
2023/05/11 07:12:32;;;;;;;96.97;51.70;;;;;;;11.17;100.00;101466.75;5078554;28;20422;-72
2023/05/11 07:14:57;;;;;;;95.55;51.70;;;;;;;11.24;100.00;101467.69;5076154;28;20028;-73
2023/05/11 07:17:22;;;;;;;92.30;50.20;;;;;;;11.37;100.00;101464.28;5080523;28;20115;-70
2023/05/11 07:19:51;;;;;;;91.93;50.42;;;;;;;11.44;100.00;101470.56;5074586;28;20032;-69
2023/05/11 07:22:16;;;;;;;91.00;50.45;;;;;;;11.51;100.00;101475.91;5075630;28;20036;-70
2023/05/11 07:24:42;;;;;;;92.15;51.65;;;;;;;11.49;100.00;101469.75;5081722;28;20375;-70
2023/05/11 07:27:07;;;;;;;91.90;51.00;;;;;;;11.48;100.00;101467.06;5079314;28;20040;-70
2023/05/11 07:29:32;;;;;;;100.43;53.40;;;;;;;11.37;100.00;101464.28;5078244;28;20078;-69
2023/05/11 07:31:57;;;;;;;101.88;52.85;;;;;;;11.37;100.00;101464.28;5076588;28;20038;-70
2023/05/11 07:34:23;;;;;;;113.00;54.63;;;;;;;11.38;100.00;101467.84;5063904;28;20107;-81
2023/05/11 07:36:49;;;;;;;110.05;54.13;;;;;;;11.50;100.00;101467.97;5077395;28;20042;-73
2023/05/11 07:39:15;;;;;;;109.32;54.22;;;;;;;11.50;100.00;101466.22;5061575;28;20088;-74
2023/05/11 07:41:41;;;;;;;97.22;52.42;;;;;;;11.42;100.00;101467.91;5074569;28;20036;-74
2023/05/11 07:44:06;;;;;;;104.32;51.60;;;;;;;11.50;100.00;101466.22;5079589;28;20032;-74
2023/05/11 07:46:32;;;;;;;92.22;50.42;;;;;;;11.58;100.00;101463.66;5076537;28;20060;-74
2023/05/11 07:48:57;;;;;;;90.65;49.58;;;;;;;11.67;100.00;101460.19;5077834;28;20037;-73
2023/05/11 07:51:22;;;;;;;87.32;48.70;;;;;;;11.62;100.00;101464.56;5079671;28;20081;-73
2023/05/11 07:53:48;;;;;;;88.40;49.13;;;;;;;11.67;100.00;101470.78;5078906;28;20028;-73
2023/05/11 07:56:13;;;;;;;82.90;46.03;;;;;;;11.62;100.00;101467.19;5078995;28;20421;-74
2023/05/11 07:58:38;;;;;;;78.55;45.28;;;;;;;11.58;100.00;101465.41;5079263;28;20037;-74
2023/05/11 08:01:04;;;;;;;80.97;44.67;;;;;;;11.57;100.00;101468.94;5074720;28;20455;-74
2023/05/11 08:03:30;;;;;;;84.03;46.38;;;;;;;11.55;100.00;101468.91;5072931;28;20032;-67
2023/05/11 08:05:55;;;;;;;84.28;45.90;;;;;;;11.50;100.00;101474.16;5078659;28;20040;-66
2023/05/11 08:08:21;;;;;;;81.03;46.45;;;;;;;11.40;100.00;101464.34;5078087;28;20025;-67
2023/05/11 08:10:46;;;;;;;95.05;49.10;;;;;;;11.29;100.00;101466.88;5081409;28;20110;-66
2023/05/11 08:13:11;;;;;;;95.20;49.47;;;;;;;11.21;100.00;101468.53;5085106;28;20081;-66
2023/05/11 08:15:37;;;;;;;95.38;49.22;;;;;;;11.16;100.00;101473.78;5082769;28;20555;-66
2023/05/11 08:18:02;;;;;;;101.75;49.47;;;;;;;11.08;100.00;101467.53;5084142;28;20028;-68
2023/05/11 08:20:28;;;;;;;99.03;50.13;;;;;;;11.06;100.00;101476.31;5083998;28;20081;-67
2023/05/11 08:22:53;;;;;;;98.35;49.55;;;;;;;11.04;100.00;101475.38;5082302;28;20036;-66
2023/05/11 08:25:19;;;;;;;103.22;49.53;;;;;;;11.07;100.00;101478.97;5085270;28;20114;-67
2023/05/11 08:27:44;;;;;;;107.10;49.67;;;;;;;11.15;100.00;101474.66;5077581;28;20037;-66
2023/05/11 08:30:10;;;;;;;106.07;50.10;;;;;;;11.20;100.00;101477.34;5084466;28;20036;-67
2023/05/11 08:32:35;;;;;;;105.40;50.38;;;;;;;11.26;100.00;101479.19;5082797;28;20570;-74
2023/05/11 08:35:02;;;;;;;106.55;50.63;;;;;;;11.26;100.00;101471.25;5083017;28;20082;-74
2023/05/11 08:37:28;;;;;;;106.82;51.05;;;;;;;11.51;100.00;101472.41;5065773;28;20024;-74
2023/05/11 08:39:54;;;;;;;103.88;50.33;;;;;;;11.55;100.00;101474.22;5082099;28;20056;-74
2023/05/11 08:42:22;;;;;;;97.35;49.97;;;;;;;11.56;100.00;101475.97;5084618;28;20032;-74
2023/05/11 08:44:48;;;;;;;100.45;50.10;;;;;;;11.82;100.00;101468.31;5081186;28;20024;-74
2023/05/11 08:47:14;;;;;;;97.45;49.53;;;;;;;11.98;100.00;101471.09;5085562;28;20379;-74
2023/05/11 08:49:40;;;;;;;93.07;48.53;;;;;;;11.90;100.00;101470.09;5081634;28;20090;-74
2023/05/11 08:52:05;;;;;;;90.20;49.15;;;;;;;11.86;100.00;101464.78;5083913;28;20402;-66
2023/05/11 08:54:31;;;;;;;94.57;49.92;;;;;;;11.91;100.00;101471.88;5082839;28;20495;-66
2023/05/11 08:56:57;;;;;;;94.93;50.45;;;;;;;11.93;100.00;101472.81;5082564;28;20078;-66
2023/05/11 08:59:25;;;;;;;92.38;50.00;;;;;;;12.14;100.00;101469.47;5065546;28;20032;-70
2023/05/11 09:01:51;;;;;;;94.45;49.45;;;;;;;12.41;100.00;101468.78;5079808;28;20016;-69
2023/05/11 09:04:18;;;;;;;88.95;49.05;;;;;;;12.58;100.00;101471.53;5081907;28;20352;-68
2023/05/11 09:06:44;;;;;;;89.03;49.15;;;;;;;12.74;100.00;101464.53;5084484;28;20032;-70
2023/05/11 09:09:10;;;;;;;87.38;48.78;;;;;;;12.80;100.00;101454.00;5081149;28;20040;-68
2023/05/11 09:11:35;;;;;;;81.03;47.00;;;;;;;12.94;100.00;101461.13;5074554;28;20484;-67
2023/05/11 09:14:03;;;;;;;74.38;46.60;;;;;;;13.00;100.00;101453.19;5081342;28;20043;-69
2023/05/11 09:16:28;;;;;;;74.72;45.40;;;;;;;13.13;100.00;101460.28;5080259;28;20479;-67
2023/05/11 09:19:00;;;;;;;72.03;44.35;;;;;;;12.95;100.00;101452.28;5078404;28;20043;-69
2023/05/11 09:21:26;;;;;;;69.97;43.33;;;;;;;13.05;100.00;101452.31;5081388;28;20036;-68
2023/05/11 09:23:55;;;;;;;74.80;44.38;;;;;;;13.13;100.00;101460.28;5084437;28;20039;-66
2023/05/11 09:26:23;;;;;;;74.05;43.65;;;;;;;13.24;100.00;101458.56;5076986;28;20103;-66
2023/05/11 09:28:49;;;;;;;66.88;42.17;;;;;;;13.36;100.00;101446.25;5076831;28;20032;-66
2023/05/11 09:31:40;;;;;;;65.07;42.00;;;;;;;13.74;100.00;101448.94;5084094;28;20020;-69
2023/05/11 09:34:16;;;;;;;62.05;39.38;;;;;;;13.81;100.00;101455.16;5080935;28;20102;-70
2023/05/11 09:36:46;;;;;;;61.05;39.60;;;;;;;13.99;100.00;101445.44;5081826;28;20503;-70
2023/05/11 09:39:13;;;;;;;62.90;40.22;;;;;;;13.87;100.00;101446.31;5082953;28;20072;-70
2023/05/11 09:41:38;;;;;;;58.90;38.78;;;;;;;13.58;100.00;101449.84;5079331;28;20068;-69
2023/05/11 09:44:14;;;;;;;62.92;40.70;;;;;;;13.27;100.00;101443.56;5079395;28;20231;-69
2023/05/11 09:46:44;;;;;;;68.25;42.40;;;;;;;13.16;100.00;101448.81;5079101;28;20032;-67
2023/05/11 09:49:11;;;;;;;62.13;41.25;;;;;;;13.14;100.00;101451.47;5074193;28;20023;-66
2023/05/11 09:51:39;;;;;;;64.25;40.25;;;;;;;13.06;100.00;101456.75;5080285;28;20016;-70
2023/05/11 09:54:19;;;;;;;66.35;41.67;;;;;;;12.93;100.00;101456.69;5077273;28;20095;-67
2023/05/11 09:56:46;;;;;;;68.93;41.83;;;;;;;12.89;100.00;101459.31;5078462;28;20021;-66
2023/05/11 09:59:33;;;;;;;61.33;40.47;;;;;;;13.05;100.00;101457.63;5083736;28;20028;-66
2023/05/11 10:02:23;;;;;;;68.82;42.30;;;;;;;13.18;100.00;101457.69;5080118;28;20025;-69
2023/05/11 10:04:50;;;;;;;66.53;42.70;;;;;;;12.94;100.00;101461.13;5080770;28;20472;-70
2023/05/11 10:07:29;;;;;;;65.93;41.63;;;;;;;13.20;100.00;101455.91;5082414;28;20020;-71
2023/05/11 10:09:57;;;;;;;64.85;42.03;;;;;;;13.69;100.00;101463.13;5083198;28;20472;-67
2023/05/11 10:12:24;;;;;;;62.28;41.80;;;;;;;13.60;100.00;101443.63;5081598;28;20027;-70
2023/05/11 10:14:51;;;;;;;59.13;41.28;;;;;;;13.50;100.00;101444.50;5082193;28;20025;-67
2023/05/11 10:17:18;;;;;;;63.40;41.22;;;;;;;13.60;100.00;101448.03;5082013;28;20039;-66
2023/05/11 10:19:44;;;;;;;63.30;40.20;;;;;;;13.80;100.00;101452.50;5081461;28;20422;-66
2023/05/11 10:22:11;;;;;;;62.53;40.45;;;;;;;13.66;100.00;101445.44;5083103;28;20024;-66
2023/05/11 10:24:37;;;;;;;61.80;38.80;;;;;;;13.65;100.00;101448.09;5082747;28;20045;-67
2023/05/11 10:27:03;;;;;;;57.35;37.78;;;;;;;13.81;100.00;101454.28;5087957;28;20032;-66
2023/05/11 10:29:30;;;;;;;56.30;36.95;;;;;;;13.87;100.00;101448.97;5084125;28;20036;-66
2023/05/11 10:31:57;;;;;;;57.15;38.10;;;;;;;14.17;100.00;101456.06;5086657;28;20042;-66
2023/05/11 10:34:23;;;;;;;53.65;36.03;;;;;;;14.17;100.00;101448.09;5085430;28;20034;-66
2023/05/11 10:36:51;;;;;;;51.03;34.55;;;;;;;14.47;100.00;101444.50;5085624;28;20032;-66
2023/05/11 10:39:17;;;;;;;47.05;31.77;;;;;;;15.18;100.00;101439.84;5076529;28;20518;-69
2023/05/11 10:41:45;;;;;;;46.70;32.60;;;;;;;15.51;100.00;101441.41;5079464;28;20025;-71
2023/05/11 10:44:48;;;;;;;50.85;35.22;;;;;;;15.33;100.00;101432.63;5079907;28;20020;-70
2023/05/11 10:47:30;;;;;;;;;;;;;;;14.88;100.00;101442.63;5075844;28;20106;-76
2023/05/11 10:50:49;;;;;;;57.28;37.28;;;;;;;14.94;100.00;101433.72;5081115;28;19912;-77
2023/05/11 10:53:51;;;;;;;58.53;36.55;;;;;;;15.16;100.00;101442.50;4996895;28;20515;-82
2023/05/11 10:56:35;;;;;;;54.60;36.42;;;;;;;15.89;100.00;101429.59;5081182;28;20498;-82
2023/05/11 10:59:40;;;;;;;56.28;37.40;;;;;;;16.69;100.00;101423.44;5077783;28;20108;-80
2023/05/11 11:02:07;;;;;;;54.58;36.03;;;;;;;17.05;100.00;101425.69;5074308;28;20040;-67